createdAt,value
2023-02-19T01:09:44.345Z,90.00
2023-02-19T01:14:46.963Z,94.20
2023-02-19T01:19:49.240Z,94.20
2023-02-19T01:24:51.341Z,94.00
2023-02-19T01:29:53.443Z,94.00
2023-02-19T01:34:55.482Z,94.00
2023-02-19T07:36:27.010Z,93.80
2023-02-19T07:41:29.310Z,97.10
2023-02-19T07:46:33.520Z,96.90
2023-02-19T07:51:35.922Z,95.70
2023-02-19T07:56:37.967Z,95.30
2023-02-19T08:01:58.651Z,95.50
2023-02-19T08:07:01.122Z,95.20
2023-02-19T08:12:21.893Z,94.50
2023-02-19T08:17:24.083Z,93.60
2023-02-19T08:22:26.160Z,93.20
2023-02-19T08:27:28.477Z,93.60
2023-02-19T08:32:30.992Z,94.60
2023-02-19T08:37:33.223Z,94.80
2023-02-19T08:42:35.255Z,93.80
2023-02-19T08:47:38.726Z,94.40
2023-02-19T08:52:40.843Z,94.00
2023-02-19T08:57:43.016Z,94.40
2023-02-19T09:02:45.290Z,93.90
2023-02-19T09:07:47.511Z,94.10
2023-02-19T09:12:49.717Z,94.10
2023-02-19T09:17:53.425Z,93.40
2023-02-19T09:22:59.700Z,93.70
2023-02-19T09:28:02.003Z,93.80
2023-02-19T09:33:06.209Z,92.20
2023-02-19T09:38:10.591Z,91.00
2023-02-19T09:43:21.373Z,90.40
2023-02-19T09:48:23.640Z,89.40
2023-02-19T09:53:41.929Z,86.50
2023-02-19T09:58:50.978Z,86.50
2023-02-19T10:03:53.049Z,84.80
2023-02-19T15:37:11.160Z,85.20
2023-02-19T17:19:43.237Z,67.40
2023-02-19T17:24:46.148Z,83.90
2023-02-19T17:29:48.222Z,83.50
2023-02-19T17:34:50.394Z,82.70
2023-02-19T17:39:52.717Z,82.50
2023-02-19T17:44:55.033Z,82.50
2023-02-19T17:49:57.772Z,82.30
2023-02-19T17:55:00.004Z,84.50
2023-02-19T18:00:02.816Z,85.70
2023-02-19T18:05:14.933Z,86.70
2023-02-19T18:10:20.341Z,87.50
2023-02-19T18:15:27.111Z,87.70
2023-02-19T18:20:31.352Z,86.80
2023-02-19T18:25:33.669Z,86.20
2023-02-19T18:30:35.907Z,87.10
2023-02-19T18:35:38.585Z,86.90
2023-02-19T18:40:41.697Z,88.00
2023-02-19T18:45:45.513Z,87.70
2023-02-19T18:50:47.896Z,86.80
2023-02-19T18:55:51.478Z,85.60
2023-02-19T19:00:53.564Z,85.30
2023-02-19T19:05:55.616Z,85.40
2023-02-19T19:10:57.693Z,85.30
2023-02-19T19:16:00.042Z,84.00
2023-02-19T19:21:03.582Z,82.60
2023-02-19T19:26:07.151Z,82.50
2023-02-19T19:31:09.975Z,83.60
2023-02-19T19:36:12.512Z,84.70
2023-02-19T19:41:17.710Z,85.50
2023-02-19T19:46:20.762Z,85.70
2023-02-19T19:51:23.047Z,86.10
2023-02-19T19:56:25.301Z,86.80
2023-02-19T20:01:27.546Z,86.80
2023-02-19T20:06:31.835Z,86.00
2023-02-19T20:11:34.461Z,87.30
2023-02-19T20:16:36.769Z,88.00
2023-02-19T20:21:39.229Z,89.00
2023-02-19T20:26:41.639Z,88.50
2023-02-19T20:31:50.212Z,88.90
2023-02-19T20:36:52.554Z,89.40
2023-02-19T20:41:54.771Z,89.60
2023-02-19T20:46:59.954Z,89.90
2023-02-19T20:52:07.490Z,90.00
2023-02-19T20:57:10.717Z,90.30
2023-02-19T21:02:23.256Z,90.60
2023-02-19T21:07:26.529Z,90.80
2023-02-19T21:12:28.632Z,90.90
2023-02-19T21:17:30.776Z,91.30
2023-02-19T21:22:33.176Z,91.40
2023-02-19T21:27:36.918Z,91.50
2023-02-19T21:32:39.344Z,91.70
2023-02-19T21:37:44.022Z,91.80
2023-02-19T21:42:46.726Z,92.10
2023-02-19T21:47:52.206Z,92.20
2023-02-19T21:52:55.500Z,92.10
2023-02-19T21:57:57.910Z,91.90
2023-02-19T22:03:00.228Z,92.30
2023-02-19T22:08:02.859Z,92.30
2023-02-19T22:13:06.832Z,92.80
2023-02-19T22:18:09.337Z,93.00
2023-02-19T22:23:11.379Z,92.60
2023-02-19T22:28:13.791Z,92.70
2023-02-19T22:33:15.967Z,93.10
2023-02-19T22:38:18.058Z,92.90
2023-02-19T22:43:20.392Z,93.00
2023-02-19T22:48:30.109Z,92.70
2023-02-19T22:53:32.991Z,92.80
2023-02-19T22:58:36.649Z,92.60
2023-02-19T23:03:57.066Z,92.70
2023-02-19T23:09:10.369Z,93.10
2023-02-19T23:14:17.577Z,93.00
2023-02-19T23:19:19.766Z,93.10
2023-02-19T23:24:22.343Z,93.30
2023-02-19T23:29:27.197Z,92.80
2023-02-19T23:34:29.395Z,93.10
2023-02-19T23:39:31.780Z,93.30
2023-02-19T23:44:34.406Z,93.40
2023-02-19T23:49:36.482Z,93.50
2023-02-19T23:54:39.434Z,93.40
2023-02-19T23:59:41.722Z,93.60
